createdAt,value
2023-04-13T00:00:16.848Z,7.65
2023-04-13T00:02:45.614Z,8.09
2023-04-13T00:05:14.112Z,8.19
2023-04-13T00:07:43.520Z,8.21
2023-04-13T00:10:12.154Z,8.29
2023-04-13T00:12:43.130Z,8.00
2023-04-13T00:15:11.744Z,8.25
2023-04-13T00:17:40.071Z,7.93
2023-04-13T00:20:13.146Z,7.98
2023-04-13T00:22:42.398Z,8.22
2023-04-13T00:25:11.909Z,8.11
2023-04-13T00:27:42.480Z,7.38
2023-04-13T00:30:12.668Z,8.23
2023-04-13T00:32:42.460Z,8.17
2023-04-13T00:35:12.274Z,8.01
2023-04-13T00:37:43.280Z,7.94
2023-04-13T00:40:13.473Z,8.24
2023-04-13T00:42:44.715Z,8.14
2023-04-13T00:45:13.738Z,8.29
2023-04-13T00:47:46.899Z,7.93
2023-04-13T00:50:15.704Z,8.17
2023-04-13T00:52:44.272Z,7.59
2023-04-13T00:55:15.125Z,7.85
2023-04-13T00:57:45.066Z,7.85
2023-04-13T01:00:15.001Z,8.17
2023-04-13T01:02:43.390Z,7.96
2023-04-13T01:05:14.303Z,7.76
2023-04-13T01:07:55.622Z,7.41
2023-04-13T01:10:29.294Z,6.84
2023-04-13T01:13:09.637Z,7.09
2023-04-13T01:15:42.869Z,7.36
2023-04-13T01:21:04.808Z,7.40
2023-04-13T01:23:48.593Z,6.53
2023-04-13T01:26:17.360Z,6.93
2023-04-13T01:28:48.972Z,7.35
2023-04-13T01:31:19.186Z,7.34
2023-04-13T01:33:48.514Z,7.42
2023-04-13T01:36:17.392Z,6.95
2023-04-13T01:38:46.175Z,7.22
2023-04-13T01:41:14.684Z,7.22
2023-04-13T01:43:43.035Z,7.36
2023-04-13T01:46:14.819Z,7.06
2023-04-13T01:48:48.493Z,6.87
2023-04-13T01:51:19.434Z,6.30
2023-04-13T01:53:53.688Z,6.59
2023-04-13T01:56:23.284Z,6.71
2023-04-13T01:58:58.223Z,7.02
2023-04-13T02:01:28.127Z,6.02
2023-04-13T02:03:57.042Z,6.09
2023-04-13T02:06:26.135Z,5.72
2023-04-13T02:08:54.899Z,6.20
2023-04-13T02:11:23.349Z,6.17
2023-04-13T02:13:51.750Z,5.91
2023-04-13T02:16:20.111Z,6.23
2023-04-13T02:18:49.803Z,6.60
2023-04-13T02:21:18.195Z,6.79
2023-04-13T02:23:46.436Z,6.55
2023-04-13T02:26:16.515Z,5.41
2023-04-13T02:28:45.759Z,6.10
2023-04-13T02:31:16.978Z,6.55
2023-04-13T02:33:46.540Z,5.81
2023-04-13T02:36:17.705Z,5.59
2023-04-13T02:38:46.077Z,6.44
2023-04-13T02:41:14.406Z,6.07
2023-04-13T02:43:43.766Z,6.84
2023-04-13T02:46:12.367Z,5.88
2023-04-13T02:48:40.608Z,6.24
2023-04-13T02:51:10.038Z,6.27
2023-04-13T02:53:40.070Z,6.15
2023-04-13T02:56:09.793Z,5.99
2023-04-13T02:58:38.083Z,5.89
2023-04-13T03:01:06.922Z,5.27
2023-04-13T03:03:35.263Z,5.21
2023-04-13T03:06:03.475Z,5.59
2023-04-13T03:08:31.864Z,5.53
2023-04-13T03:11:01.579Z,5.72
2023-04-13T03:13:29.872Z,5.76
2023-04-13T03:16:00.731Z,5.75
2023-04-13T03:18:29.314Z,5.62
2023-04-13T03:20:57.536Z,5.80
2023-04-13T03:23:25.795Z,5.47
2023-04-13T03:25:54.100Z,5.45
2023-04-13T03:28:23.932Z,5.55
2023-04-13T03:30:52.253Z,5.37
2023-04-13T03:33:21.569Z,5.29
2023-04-13T03:35:49.875Z,5.40
2023-04-13T03:38:18.205Z,5.43
2023-04-13T03:40:46.492Z,5.32
2023-04-13T03:43:14.790Z,5.24
2023-04-13T03:45:44.523Z,5.12
2023-04-13T03:48:12.794Z,5.42
2023-04-13T03:50:41.106Z,5.61
2023-04-13T03:53:09.397Z,5.75
2023-04-13T03:55:38.289Z,5.62
2023-04-13T03:58:07.415Z,5.00
2023-04-13T04:00:36.059Z,4.65
2023-04-13T04:03:05.897Z,4.44
2023-04-13T04:05:34.298Z,3.70
2023-04-13T04:08:02.646Z,4.02
2023-04-13T04:10:31.014Z,4.41
2023-04-13T04:12:59.417Z,3.94
2023-04-13T04:15:27.825Z,4.26
2023-04-13T04:17:56.215Z,4.68
2023-04-13T04:20:25.891Z,4.23
2023-04-13T04:22:54.431Z,4.27
2023-04-13T04:25:23.180Z,4.78
2023-04-13T04:27:53.059Z,4.81
2023-04-13T04:30:22.487Z,4.86
2023-04-13T04:32:53.183Z,4.33
2023-04-13T04:35:22.137Z,4.77
2023-04-13T04:37:51.847Z,4.40
2023-04-13T04:40:20.301Z,4.40
2023-04-13T04:42:48.491Z,4.96
2023-04-13T04:45:16.938Z,5.50
2023-04-13T04:47:45.279Z,5.56
2023-04-13T04:50:14.645Z,5.32
2023-04-13T04:52:43.244Z,5.98
2023-04-13T04:55:13.000Z,5.27
2023-04-13T04:57:41.261Z,6.09
2023-04-13T05:00:15.567Z,6.08
2023-04-13T05:02:44.463Z,6.37
2023-04-13T05:05:13.064Z,6.12
2023-04-13T05:07:41.322Z,6.06
2023-04-13T05:10:10.791Z,5.86
2023-04-13T05:12:40.523Z,6.44
2023-04-13T05:15:10.104Z,6.15
2023-04-13T05:17:38.639Z,2.33
2023-04-13T05:20:08.310Z,6.91
2023-04-13T05:22:37.310Z,5.16
2023-04-13T05:25:06.924Z,5.42
2023-04-13T05:27:35.526Z,5.33
2023-04-13T05:30:08.967Z,5.14
2023-04-13T05:32:37.671Z,6.16
2023-04-13T05:35:07.202Z,5.86
2023-04-13T05:37:35.787Z,6.91
2023-04-13T05:40:09.149Z,5.80
2023-04-13T05:42:46.925Z,5.23
2023-04-13T05:45:17.361Z,6.07
2023-04-13T05:47:46.246Z,6.72
2023-04-13T05:50:14.825Z,7.29
2023-04-13T05:52:43.203Z,7.53
2023-04-13T05:55:12.044Z,8.37
2023-04-13T05:57:40.913Z,8.72
2023-04-13T06:00:10.723Z,8.23
2023-04-13T06:02:42.062Z,8.56
2023-04-13T06:05:13.830Z,8.96
2023-04-13T06:07:44.789Z,9.49
2023-04-13T06:10:14.414Z,10.35
2023-04-13T06:12:43.117Z,10.90
2023-04-13T06:15:12.296Z,11.60
2023-04-13T06:17:42.279Z,11.91
2023-04-13T06:20:11.597Z,10.96
2023-04-13T06:22:39.996Z,10.33
2023-04-13T06:25:11.032Z,10.37
2023-04-13T06:27:39.402Z,11.36
2023-04-13T06:30:09.444Z,12.35
2023-04-13T06:32:37.836Z,12.49
2023-04-13T06:35:09.045Z,12.37
2023-04-13T06:37:39.203Z,12.54
2023-04-13T06:40:12.418Z,13.06
2023-04-13T06:42:41.419Z,14.00
2023-04-13T06:45:11.297Z,13.43
2023-04-13T06:47:41.321Z,12.78
2023-04-13T06:50:14.212Z,13.56
2023-04-13T06:52:44.361Z,13.86
2023-04-13T06:55:12.785Z,14.86
2023-04-13T06:57:41.731Z,14.49
2023-04-13T07:00:22.280Z,15.01
2023-04-13T07:02:58.387Z,14.18
2023-04-13T07:05:28.385Z,14.34
2023-04-13T07:07:57.213Z,15.58
2023-04-13T07:10:25.742Z,16.10
2023-04-13T07:12:54.135Z,16.29
2023-04-13T07:15:22.613Z,16.41
2023-04-13T07:17:52.602Z,17.09
2023-04-13T07:20:20.976Z,17.39
2023-04-13T07:22:50.695Z,16.36
2023-04-13T07:25:19.124Z,16.71
2023-04-13T07:27:47.437Z,17.19
2023-04-13T07:30:16.539Z,17.69
2023-04-13T07:32:44.946Z,17.98
2023-04-13T07:35:13.328Z,17.61
2023-04-13T07:37:42.487Z,19.09
2023-04-13T07:40:13.261Z,19.03
2023-04-13T07:42:41.724Z,17.96
2023-04-13T07:45:11.688Z,18.86
2023-04-13T07:47:40.156Z,18.64
2023-04-13T07:50:09.628Z,19.36
2023-04-13T07:52:38.005Z,20.35
2023-04-13T07:55:07.393Z,20.71
2023-04-13T07:57:37.603Z,20.96
2023-04-13T08:00:06.562Z,19.44
2023-04-13T08:02:34.995Z,19.88
2023-04-13T08:05:04.003Z,20.49
2023-04-13T08:07:32.632Z,21.19
2023-04-13T08:10:04.209Z,20.38
2023-04-13T08:12:32.605Z,20.88
2023-04-13T08:15:02.303Z,21.63
2023-04-13T08:17:30.635Z,19.71
2023-04-13T08:19:58.948Z,19.77
2023-04-13T08:22:27.308Z,20.23
2023-04-13T08:24:56.719Z,21.65
2023-04-13T08:27:25.512Z,21.69
2023-04-13T08:29:56.991Z,21.40
2023-04-13T08:32:26.699Z,20.73
2023-04-13T08:34:55.838Z,21.10
2023-04-13T08:37:24.724Z,20.22
2023-04-13T08:39:56.681Z,20.27
2023-04-13T08:42:27.001Z,20.65
2023-04-13T08:44:59.325Z,21.78
2023-04-13T08:47:30.280Z,22.61
2023-04-13T08:49:59.849Z,22.28
2023-04-13T08:52:28.761Z,23.45
2023-04-13T08:54:59.472Z,22.84
2023-04-13T08:57:28.903Z,22.67
2023-04-13T08:59:59.000Z,23.28
2023-04-13T09:02:35.719Z,22.71
2023-04-13T09:05:16.343Z,23.57
2023-04-13T09:07:50.900Z,23.77
2023-04-13T09:10:20.536Z,25.21
2023-04-13T09:12:50.967Z,25.09
2023-04-13T09:15:19.571Z,24.46
2023-04-13T09:17:50.683Z,23.60
2023-04-13T09:20:22.356Z,23.57
2023-04-13T09:22:51.764Z,23.55
2023-04-13T09:25:24.543Z,24.83
2023-04-13T09:27:53.339Z,23.76
2023-04-13T09:30:22.886Z,25.36
2023-04-13T09:33:04.863Z,26.54
2023-04-13T09:35:33.556Z,27.18
2023-04-13T09:38:02.213Z,27.59
2023-04-13T09:40:30.955Z,26.15
2023-04-13T09:43:01.109Z,26.37
2023-04-13T09:45:36.575Z,26.08
2023-04-13T09:48:17.034Z,25.94
2023-04-13T09:50:45.668Z,26.10
2023-04-13T09:53:14.431Z,27.36
2023-04-13T09:55:44.506Z,27.67
2023-04-13T09:58:14.786Z,28.46
2023-04-13T10:00:44.021Z,26.45
2023-04-13T10:03:15.017Z,26.12
2023-04-13T10:05:58.540Z,27.29
2023-04-13T10:08:37.354Z,26.93
2023-04-13T10:11:11.997Z,27.37
2023-04-13T10:13:46.940Z,27.34
2023-04-13T10:16:33.611Z,28.00
2023-04-13T10:19:06.636Z,26.57
2023-04-13T10:21:39.585Z,26.85
2023-04-13T10:24:12.164Z,27.79
2023-04-13T10:26:42.366Z,28.13
2023-04-13T10:29:13.576Z,28.32
2023-04-13T10:31:43.648Z,28.68
2023-04-13T10:34:25.547Z,27.52
2023-04-13T10:36:56.345Z,28.42
2023-04-13T10:39:28.297Z,29.19
2023-04-13T10:42:03.913Z,29.39
2023-04-13T10:44:42.970Z,28.24
2023-04-13T10:47:12.449Z,28.93
2023-04-13T10:49:42.678Z,28.10
2023-04-13T10:52:11.654Z,28.93
2023-04-13T10:54:41.287Z,29.22
2023-04-13T10:57:11.452Z,28.87
2023-04-13T10:59:57.189Z,29.03
2023-04-13T11:02:31.849Z,28.77
2023-04-13T11:05:02.628Z,29.53
2023-04-13T11:07:31.617Z,30.41
2023-04-13T11:12:32.315Z,30.60
2023-04-13T11:15:01.035Z,30.12
2023-04-13T11:17:29.668Z,30.75
2023-04-13T11:19:58.785Z,29.10
2023-04-13T11:22:29.087Z,27.66
2023-04-13T11:25:09.238Z,28.62
2023-04-13T11:27:38.045Z,26.72
2023-04-13T11:30:09.798Z,25.97
2023-04-13T11:32:41.602Z,27.14
2023-04-13T11:35:11.543Z,27.08
2023-04-13T11:37:42.705Z,26.62
2023-04-13T11:40:15.009Z,28.90
2023-04-13T11:42:47.742Z,29.78
2023-04-13T11:45:18.518Z,29.80
2023-04-13T11:47:48.840Z,29.00
2023-04-13T11:50:17.832Z,29.14
2023-04-13T11:52:48.808Z,29.15
2023-04-13T11:55:23.623Z,29.69
2023-04-13T11:57:53.511Z,29.54
2023-04-13T12:00:26.838Z,29.57
2023-04-13T12:05:31.489Z,28.55
2023-04-13T12:08:04.373Z,28.13
2023-04-13T12:10:41.350Z,28.47
2023-04-13T12:13:22.150Z,29.43
2023-04-13T12:16:08.622Z,29.47
2023-04-13T12:18:46.906Z,29.41
2023-04-13T12:21:17.878Z,28.75
2023-04-13T12:23:59.491Z,28.97
2023-04-13T12:27:16.126Z,29.68
2023-04-13T12:29:23.860Z,29.54
2023-04-13T12:31:52.260Z,28.66
2023-04-13T12:34:21.153Z,27.45
2023-04-13T12:36:49.419Z,29.07
2023-04-13T12:39:20.716Z,29.16
2023-04-13T12:41:48.998Z,29.25
2023-04-13T12:44:17.319Z,28.61
2023-04-13T12:46:45.689Z,27.25
2023-04-13T12:49:13.931Z,27.12
2023-04-13T12:51:42.407Z,28.26
2023-04-13T12:54:13.458Z,28.89
2023-04-13T12:56:43.209Z,28.03
2023-04-13T12:59:11.431Z,27.57
2023-04-13T13:01:39.822Z,27.41
2023-04-13T13:04:08.079Z,27.45
2023-04-13T13:06:36.455Z,27.42
2023-04-13T13:09:05.836Z,27.96
2023-04-13T13:11:34.388Z,28.59
2023-04-13T13:14:04.025Z,28.13
2023-04-13T13:16:32.810Z,27.85
2023-04-13T13:19:02.543Z,27.21
2023-04-13T13:21:31.528Z,26.74
2023-04-13T13:23:59.863Z,26.72
2023-04-13T13:26:36.212Z,27.49
2023-04-13T13:29:15.437Z,26.76
2023-04-13T13:31:43.823Z,27.40
2023-04-13T13:34:12.127Z,27.03
2023-04-13T13:36:40.564Z,25.86
2023-04-13T13:39:08.840Z,25.88
2023-04-13T13:41:37.092Z,26.39
2023-04-13T13:44:05.385Z,27.09
2023-04-13T13:46:35.198Z,26.86
2023-04-13T13:49:03.546Z,26.99
2023-04-13T13:51:32.713Z,26.73
2023-04-13T13:54:01.114Z,27.61
2023-04-13T13:56:29.347Z,28.17
2023-04-13T13:58:58.127Z,26.70
2023-04-13T14:01:26.700Z,27.14
2023-04-13T14:03:56.481Z,26.54
2023-04-13T14:06:24.891Z,27.31
2023-04-13T14:08:55.920Z,27.26
2023-04-13T14:11:24.730Z,27.69
2023-04-13T14:13:53.817Z,27.19
2023-04-13T14:16:23.493Z,27.17
2023-04-13T14:18:51.826Z,25.69
2023-04-13T14:21:23.124Z,25.90
2023-04-13T14:23:51.922Z,25.11
2023-04-13T14:26:20.207Z,25.68
2023-04-13T14:28:49.278Z,26.43
2023-04-13T14:31:17.500Z,26.71
2023-04-13T14:33:45.904Z,25.09
2023-04-13T14:36:15.540Z,25.52
2023-04-13T14:38:45.191Z,25.64
2023-04-13T14:41:13.501Z,25.02
2023-04-13T14:43:41.842Z,25.24
2023-04-13T14:46:11.326Z,24.57
2023-04-13T14:48:39.658Z,23.60
2023-04-13T14:51:07.935Z,23.78
2023-04-13T14:53:36.341Z,23.56
2023-04-13T14:56:06.506Z,24.13
2023-04-13T14:58:34.938Z,23.91
2023-04-13T15:01:04.802Z,23.91
2023-04-13T15:03:33.815Z,23.45
2023-04-13T15:06:03.823Z,23.57
2023-04-13T15:08:34.271Z,23.40
2023-04-13T15:11:02.568Z,23.10
2023-04-13T15:13:32.282Z,23.20
2023-04-13T15:16:00.624Z,23.12
2023-04-13T15:18:28.986Z,23.78
2023-04-13T15:20:57.200Z,23.87
2023-04-13T15:23:25.777Z,22.46
2023-04-13T15:25:54.145Z,22.25
2023-04-13T15:28:22.492Z,21.67
2023-04-13T15:30:53.090Z,21.97
2023-04-13T15:33:21.460Z,22.26
2023-04-13T15:35:49.926Z,22.42
2023-04-13T15:38:18.204Z,22.36
2023-04-13T15:40:46.589Z,21.66
2023-04-13T15:43:15.047Z,21.65
2023-04-13T15:45:43.377Z,21.55
2023-04-13T15:48:13.197Z,21.83
2023-04-13T15:50:41.476Z,21.18
2023-04-13T15:53:09.748Z,21.15
2023-04-13T15:55:38.252Z,20.87
2023-04-13T15:58:06.525Z,20.55
2023-04-13T16:00:35.553Z,20.82
2023-04-13T16:03:04.019Z,20.30
2023-04-13T16:05:34.071Z,20.05
2023-04-13T16:08:02.435Z,20.16
2023-04-13T16:10:30.833Z,20.10
2023-04-13T16:12:59.078Z,19.80
2023-04-13T16:15:27.416Z,19.47
2023-04-13T16:17:57.124Z,19.94
2023-04-13T16:20:28.625Z,19.54
2023-04-13T16:22:59.536Z,19.18
2023-04-13T16:25:27.773Z,19.62
2023-04-13T16:27:56.396Z,19.03
2023-04-13T16:30:24.889Z,19.15
2023-04-13T16:32:53.175Z,19.17
2023-04-13T16:35:21.749Z,19.12
2023-04-13T16:37:49.935Z,19.11
2023-04-13T16:40:19.728Z,19.09
2023-04-13T16:42:47.978Z,18.83
2023-04-13T16:45:16.296Z,18.98
2023-04-13T16:47:44.777Z,18.79
2023-04-13T16:50:13.534Z,18.75
2023-04-13T16:52:42.102Z,18.25
2023-04-13T16:55:14.195Z,18.29
2023-04-13T16:57:44.593Z,18.77
2023-04-13T17:00:15.067Z,18.47
2023-04-13T17:02:44.310Z,18.88
2023-04-13T17:05:13.703Z,18.54
2023-04-13T17:07:43.419Z,18.28
2023-04-13T17:10:13.024Z,18.26
2023-04-13T17:12:43.190Z,18.16
2023-04-13T17:15:12.264Z,18.18
2023-04-13T17:17:40.549Z,18.05
2023-04-13T17:20:10.227Z,18.08
2023-04-13T17:22:38.695Z,18.15
2023-04-13T17:25:08.483Z,18.33
2023-04-13T17:27:36.772Z,18.32
2023-04-13T17:30:07.903Z,18.43
2023-04-13T17:32:36.335Z,18.34
2023-04-13T17:35:04.952Z,18.16
2023-04-13T17:37:33.258Z,18.11
2023-04-13T17:40:01.791Z,18.08
2023-04-13T17:42:31.093Z,17.91
2023-04-13T17:44:59.363Z,17.82
2023-04-13T17:47:29.127Z,17.70
2023-04-13T17:49:57.601Z,17.65
2023-04-13T17:52:25.974Z,17.89
2023-04-13T17:54:54.227Z,17.87
2023-04-13T17:57:22.489Z,17.76
2023-04-13T17:59:50.880Z,17.64
2023-04-13T18:02:20.368Z,17.73
2023-04-13T18:04:50.180Z,17.77
2023-04-13T18:07:18.712Z,17.42
2023-04-13T18:09:46.949Z,17.26
2023-04-13T18:12:15.269Z,17.11
2023-04-13T18:14:43.613Z,16.93
2023-04-13T18:17:11.926Z,17.04
2023-04-13T18:19:40.430Z,17.07
2023-04-13T18:22:10.150Z,16.74
2023-04-13T18:24:38.866Z,16.36
2023-04-13T18:27:07.187Z,16.04
2023-04-13T18:29:35.482Z,16.44
2023-04-13T18:32:03.925Z,16.55
2023-04-13T18:34:34.403Z,16.43
2023-04-13T18:37:04.025Z,16.32
2023-04-13T18:39:34.162Z,16.20
2023-04-13T18:42:02.406Z,16.40
2023-04-13T18:44:30.736Z,16.01
2023-04-13T18:46:59.131Z,16.34
2023-04-13T18:49:27.491Z,16.37
2023-04-13T18:51:56.126Z,16.33
2023-04-13T18:54:24.399Z,16.22
2023-04-13T18:56:54.047Z,16.26
2023-04-13T18:59:22.324Z,16.18
2023-04-13T19:01:51.508Z,16.42
2023-04-13T19:04:19.927Z,16.43
2023-04-13T19:06:48.203Z,16.22
2023-04-13T19:09:16.623Z,16.21
2023-04-13T19:11:49.235Z,16.31
2023-04-13T19:14:19.116Z,16.17
2023-04-13T19:16:48.152Z,15.88
2023-04-13T19:19:16.701Z,15.96
2023-04-13T19:21:45.032Z,15.77
2023-04-13T19:24:13.582Z,15.97
2023-04-13T19:26:42.029Z,15.73
2023-04-13T19:29:12.659Z,15.76
2023-04-13T19:31:44.932Z,15.78
2023-04-13T19:34:13.617Z,15.46
2023-04-13T19:36:42.688Z,14.73
2023-04-13T19:39:11.264Z,15.47
2023-04-13T19:41:41.076Z,15.08
2023-04-13T19:44:09.939Z,15.14
2023-04-13T19:46:38.761Z,15.05
2023-04-13T19:49:08.481Z,14.98
2023-04-13T19:51:37.014Z,14.95
2023-04-13T19:54:06.224Z,15.06
2023-04-13T19:56:35.926Z,15.05
2023-04-13T19:59:05.921Z,15.09
2023-04-13T20:01:34.830Z,15.01
2023-04-13T20:04:05.346Z,14.77
2023-04-13T20:06:36.068Z,14.85
2023-04-13T20:09:12.017Z,14.56
2023-04-13T20:11:41.329Z,14.38
2023-04-13T20:14:11.504Z,14.22
2023-04-13T20:16:39.979Z,13.36
2023-04-13T20:19:09.606Z,13.75
2023-04-13T20:21:42.030Z,13.30
2023-04-13T20:24:10.469Z,13.87
2023-04-13T20:26:40.025Z,14.16
2023-04-13T20:29:08.520Z,14.25
2023-04-13T20:31:37.976Z,14.21
2023-04-13T20:34:09.772Z,14.14
2023-04-13T20:36:39.566Z,13.96
2023-04-13T20:39:09.600Z,13.80
2023-04-13T20:41:38.996Z,13.25
2023-04-13T20:44:10.032Z,13.16
2023-04-13T20:46:42.007Z,13.34
2023-04-13T20:49:12.013Z,13.48
2023-04-13T20:51:41.624Z,13.55
2023-04-13T20:54:10.173Z,13.56
2023-04-13T20:56:38.522Z,13.73
2023-04-13T20:59:07.512Z,13.96
2023-04-13T21:01:36.193Z,13.35
2023-04-13T21:04:04.779Z,13.44
2023-04-13T21:06:35.171Z,13.59
2023-04-13T21:09:05.902Z,13.25
2023-04-13T21:11:34.191Z,13.18
2023-04-13T21:14:02.679Z,12.80
2023-04-13T21:16:31.658Z,13.00
2023-04-13T21:19:00.042Z,12.91
2023-04-13T21:21:28.384Z,12.88
2023-04-13T21:23:57.160Z,13.06
2023-04-13T21:26:27.032Z,12.96
2023-04-13T21:28:55.366Z,13.08
2023-04-13T21:31:23.795Z,13.08
2023-04-13T21:33:52.142Z,13.03
2023-04-13T21:38:51.514Z,13.22
2023-04-13T21:41:21.110Z,12.89
2023-04-13T21:43:50.916Z,12.41
2023-04-13T21:46:20.541Z,12.58
2023-04-13T21:48:48.896Z,13.12
2023-04-13T21:51:17.150Z,13.12
2023-04-13T21:53:45.518Z,13.45
2023-04-13T21:56:13.768Z,13.10
2023-04-13T21:58:43.953Z,12.98
2023-04-13T22:01:14.900Z,13.24
2023-04-13T22:03:44.626Z,13.48
2023-04-13T22:06:13.338Z,13.52
2023-04-13T22:08:42.080Z,13.52
2023-04-13T22:11:10.841Z,12.83
2023-04-13T22:13:39.179Z,12.87
2023-04-13T22:16:08.654Z,12.40
2023-04-13T22:18:38.267Z,12.87
2023-04-13T22:21:07.093Z,12.75
2023-04-13T22:23:35.354Z,12.68
2023-04-13T22:26:03.625Z,12.89
2023-04-13T22:28:33.130Z,12.67
2023-04-13T22:31:07.454Z,12.86
2023-04-13T22:33:37.819Z,12.65
2023-04-13T22:36:06.993Z,12.81
2023-04-13T22:38:35.390Z,12.77
2023-04-13T22:41:08.046Z,13.07
2023-04-13T22:43:36.398Z,12.96
2023-04-13T22:46:04.827Z,12.88
2023-04-13T22:48:33.189Z,12.84
2023-04-13T22:51:03.764Z,12.32
2023-04-13T22:53:32.493Z,12.35
2023-04-13T22:56:01.483Z,12.66
2023-04-13T22:58:29.820Z,12.74
2023-04-13T23:00:58.208Z,12.75
2023-04-13T23:03:27.673Z,12.93
2023-04-13T23:05:56.218Z,12.74
2023-04-13T23:08:26.106Z,12.98
2023-04-13T23:10:54.420Z,12.95
2023-04-13T23:13:22.762Z,13.23
2023-04-13T23:15:51.094Z,13.27
2023-04-13T23:18:19.388Z,13.22
2023-04-13T23:20:47.657Z,13.18
2023-04-13T23:23:16.003Z,13.17
2023-04-13T23:25:50.135Z,13.11
2023-04-13T23:28:18.652Z,13.17
2023-04-13T23:30:47.001Z,13.11
2023-04-13T23:33:15.269Z,13.07
2023-04-13T23:35:43.582Z,13.05
2023-04-13T23:38:11.936Z,13.03
2023-04-13T23:40:40.240Z,13.00
2023-04-13T23:43:09.932Z,13.00
2023-04-13T23:45:38.659Z,12.01
2023-04-13T23:48:07.337Z,11.85
2023-04-13T23:50:35.631Z,12.18
2023-04-13T23:53:03.918Z,12.08
2023-04-13T23:55:32.161Z,12.28
2023-04-13T23:58:00.547Z,12.48
